sensor_id;sensor_type;location;lat;lon;timestamp;P1;durP1;ratioP1;P2;durP2;ratioP2
12181;SDS011;6154;51.550;12.138;2023-01-10T00:01:44;3.55;;;1.10;;
12181;SDS011;6154;51.550;12.138;2023-01-10T00:04:13;1.65;;;1.35;;
12181;SDS011;6154;51.550;12.138;2023-01-10T00:06:41;1.80;;;1.00;;
12181;SDS011;6154;51.550;12.138;2023-01-10T00:09:09;2.62;;;1.15;;
12181;SDS011;6154;51.550;12.138;2023-01-10T00:11:37;2.30;;;1.20;;
12181;SDS011;6154;51.550;12.138;2023-01-10T00:14:25;1.05;;;0.70;;
12181;SDS011;6154;51.550;12.138;2023-01-10T00:16:56;4.10;;;0.98;;
12181;SDS011;6154;51.550;12.138;2023-01-10T00:19:24;2.25;;;1.30;;
12181;SDS011;6154;51.550;12.138;2023-01-10T00:21:52;1.48;;;0.85;;
12181;SDS011;6154;51.550;12.138;2023-01-10T00:24:21;0.80;;;0.80;;
12181;SDS011;6154;51.550;12.138;2023-01-10T00:26:50;1.55;;;1.17;;
12181;SDS011;6154;51.550;12.138;2023-01-10T00:29:18;0.95;;;0.88;;
12181;SDS011;6154;51.550;12.138;2023-01-10T00:31:50;1.70;;;1.02;;
12181;SDS011;6154;51.550;12.138;2023-01-10T00:34:19;2.03;;;0.90;;
12181;SDS011;6154;51.550;12.138;2023-01-10T00:36:50;2.40;;;1.33;;
12181;SDS011;6154;51.550;12.138;2023-01-10T00:39:19;1.12;;;0.90;;
12181;SDS011;6154;51.550;12.138;2023-01-10T00:41:47;1.02;;;0.95;;
12181;SDS011;6154;51.550;12.138;2023-01-10T00:44:33;1.67;;;1.10;;
12181;SDS011;6154;51.550;12.138;2023-01-10T00:47:01;1.02;;;0.90;;
12181;SDS011;6154;51.550;12.138;2023-01-10T00:49:30;1.48;;;1.08;;
12181;SDS011;6154;51.550;12.138;2023-01-10T00:51:58;1.20;;;1.10;;
12181;SDS011;6154;51.550;12.138;2023-01-10T00:54:26;1.20;;;0.93;;
12181;SDS011;6154;51.550;12.138;2023-01-10T00:56:54;1.33;;;0.80;;
12181;SDS011;6154;51.550;12.138;2023-01-10T00:59:23;1.45;;;1.23;;
12181;SDS011;6154;51.550;12.138;2023-01-10T01:01:51;1.27;;;1.10;;
12181;SDS011;6154;51.550;12.138;2023-01-10T01:04:20;3.37;;;1.40;;
12181;SDS011;6154;51.550;12.138;2023-01-10T01:06:50;2.55;;;1.00;;
12181;SDS011;6154;51.550;12.138;2023-01-10T01:09:18;2.58;;;1.23;;
12181;SDS011;6154;51.550;12.138;2023-01-10T01:11:46;1.80;;;1.17;;
12181;SDS011;6154;51.550;12.138;2023-01-10T01:14:15;1.30;;;1.10;;
12181;SDS011;6154;51.550;12.138;2023-01-10T01:16:43;1.52;;;1.00;;
12181;SDS011;6154;51.550;12.138;2023-01-10T01:19:11;2.20;;;1.15;;
12181;SDS011;6154;51.550;12.138;2023-01-10T01:21:39;1.33;;;1.17;;
12181;SDS011;6154;51.550;12.138;2023-01-10T01:24:09;3.92;;;0.85;;
12181;SDS011;6154;51.550;12.138;2023-01-10T01:26:37;1.62;;;1.17;;
12181;SDS011;6154;51.550;12.138;2023-01-10T01:29:05;1.87;;;1.58;;
12181;SDS011;6154;51.550;12.138;2023-01-10T01:31:33;1.10;;;0.98;;
12181;SDS011;6154;51.550;12.138;2023-01-10T01:34:02;3.47;;;1.33;;
12181;SDS011;6154;51.550;12.138;2023-01-10T01:36:30;2.80;;;1.02;;
12181;SDS011;6154;51.550;12.138;2023-01-10T01:38:58;2.75;;;1.33;;
12181;SDS011;6154;51.550;12.138;2023-01-10T01:41:27;2.17;;;1.30;;
12181;SDS011;6154;51.550;12.138;2023-01-10T01:44:14;2.35;;;1.23;;
12181;SDS011;6154;51.550;12.138;2023-01-10T01:46:44;2.00;;;1.27;;
12181;SDS011;6154;51.550;12.138;2023-01-10T01:49:17;1.70;;;0.95;;
12181;SDS011;6154;51.550;12.138;2023-01-10T01:51:50;1.77;;;1.00;;
12181;SDS011;6154;51.550;12.138;2023-01-10T01:54:23;1.40;;;1.02;;
12181;SDS011;6154;51.550;12.138;2023-01-10T01:56:56;3.22;;;1.30;;
12181;SDS011;6154;51.550;12.138;2023-01-10T01:59:29;3.33;;;1.30;;
12181;SDS011;6154;51.550;12.138;2023-01-10T02:02:00;5.12;;;1.45;;
12181;SDS011;6154;51.550;12.138;2023-01-10T02:04:34;1.87;;;1.30;;
12181;SDS011;6154;51.550;12.138;2023-01-10T02:07:08;1.10;;;0.85;;
12181;SDS011;6154;51.550;12.138;2023-01-10T02:09:39;1.65;;;1.37;;
12181;SDS011;6154;51.550;12.138;2023-01-10T02:12:13;1.75;;;1.60;;
12181;SDS011;6154;51.550;12.138;2023-01-10T02:14:42;5.20;;;1.37;;
12181;SDS011;6154;51.550;12.138;2023-01-10T02:17:12;2.25;;;1.30;;
12181;SDS011;6154;51.550;12.138;2023-01-10T02:19:42;2.55;;;1.33;;
12181;SDS011;6154;51.550;12.138;2023-01-10T02:22:33;1.58;;;1.12;;
12181;SDS011;6154;51.550;12.138;2023-01-10T02:32:08;4.50;;;1.27;;
12181;SDS011;6154;51.550;12.138;2023-01-10T02:34:47;2.75;;;1.45;;
12181;SDS011;6154;51.550;12.138;2023-01-10T02:37:29;1.98;;;1.33;;
12181;SDS011;6154;51.550;12.138;2023-01-10T02:40:06;3.78;;;1.50;;
12181;SDS011;6154;51.550;12.138;2023-01-10T02:42:41;2.45;;;1.73;;
12181;SDS011;6154;51.550;12.138;2023-01-10T02:45:15;2.87;;;1.58;;
12181;SDS011;6154;51.550;12.138;2023-01-10T02:47:47;3.22;;;1.20;;
12181;SDS011;6154;51.550;12.138;2023-01-10T02:50:27;4.78;;;1.15;;
12181;SDS011;6154;51.550;12.138;2023-01-10T02:52:58;4.80;;;1.60;;
12181;SDS011;6154;51.550;12.138;2023-01-10T02:55:32;3.78;;;1.65;;
12181;SDS011;6154;51.550;12.138;2023-01-10T02:58:12;3.80;;;1.30;;
12181;SDS011;6154;51.550;12.138;2023-01-10T03:00:55;5.35;;;1.00;;
12181;SDS011;6154;51.550;12.138;2023-01-10T03:03:34;2.33;;;1.83;;
12181;SDS011;6154;51.550;12.138;2023-01-10T03:06:11;2.05;;;1.77;;
12181;SDS011;6154;51.550;12.138;2023-01-10T03:08:50;2.87;;;1.87;;
12181;SDS011;6154;51.550;12.138;2023-01-10T03:11:24;1.42;;;1.30;;
12181;SDS011;6154;51.550;12.138;2023-01-10T03:14:10;4.00;;;1.67;;
12181;SDS011;6154;51.550;12.138;2023-01-10T03:16:44;2.28;;;1.60;;
12181;SDS011;6154;51.550;12.138;2023-01-10T03:19:18;2.87;;;1.67;;
12181;SDS011;6154;51.550;12.138;2023-01-10T03:21:48;2.72;;;1.52;;
12181;SDS011;6154;51.550;12.138;2023-01-10T03:24:22;2.22;;;1.50;;
12181;SDS011;6154;51.550;12.138;2023-01-10T03:26:54;5.95;;;1.52;;
12181;SDS011;6154;51.550;12.138;2023-01-10T03:29:27;5.95;;;1.80;;
12181;SDS011;6154;51.550;12.138;2023-01-10T03:31:59;6.95;;;1.75;;
12181;SDS011;6154;51.550;12.138;2023-01-10T03:34:32;2.67;;;1.67;;
12181;SDS011;6154;51.550;12.138;2023-01-10T03:37:03;2.87;;;1.90;;
12181;SDS011;6154;51.550;12.138;2023-01-10T03:39:40;5.60;;;2.40;;
12181;SDS011;6154;51.550;12.138;2023-01-10T03:42:19;6.12;;;2.47;;
12181;SDS011;6154;51.550;12.138;2023-01-10T03:44:52;2.50;;;1.70;;
12181;SDS011;6154;51.550;12.138;2023-01-10T03:47:26;2.80;;;1.33;;
12181;SDS011;6154;51.550;12.138;2023-01-10T03:50:03;4.30;;;1.83;;
12181;SDS011;6154;51.550;12.138;2023-01-10T03:52:34;4.62;;;2.00;;
12181;SDS011;6154;51.550;12.138;2023-01-10T03:55:03;2.97;;;1.80;;
12181;SDS011;6154;51.550;12.138;2023-01-10T03:57:33;3.67;;;1.98;;
12181;SDS011;6154;51.550;12.138;2023-01-10T04:00:02;3.28;;;2.33;;
12181;SDS011;6154;51.550;12.138;2023-01-10T04:02:32;5.22;;;1.95;;
12181;SDS011;6154;51.550;12.138;2023-01-10T04:05:00;2.47;;;1.67;;
12181;SDS011;6154;51.550;12.138;2023-01-10T04:07:29;3.90;;;1.67;;
12181;SDS011;6154;51.550;12.138;2023-01-10T04:09:57;3.50;;;2.10;;
12181;SDS011;6154;51.550;12.138;2023-01-10T04:12:25;2.05;;;1.55;;
12181;SDS011;6154;51.550;12.138;2023-01-10T04:14:54;3.05;;;1.77;;
12181;SDS011;6154;51.550;12.138;2023-01-10T04:17:22;2.87;;;1.83;;
12181;SDS011;6154;51.550;12.138;2023-01-10T04:19:50;3.47;;;2.40;;
12181;SDS011;6154;51.550;12.138;2023-01-10T04:22:18;2.92;;;1.73;;
12181;SDS011;6154;51.550;12.138;2023-01-10T04:24:48;3.55;;;2.05;;
12181;SDS011;6154;51.550;12.138;2023-01-10T04:27:17;5.72;;;2.25;;
12181;SDS011;6154;51.550;12.138;2023-01-10T04:29:46;4.55;;;1.80;;
12181;SDS011;6154;51.550;12.138;2023-01-10T04:32:14;4.65;;;2.10;;
12181;SDS011;6154;51.550;12.138;2023-01-10T04:34:42;6.95;;;2.22;;
12181;SDS011;6154;51.550;12.138;2023-01-10T04:37:10;3.25;;;2.50;;
12181;SDS011;6154;51.550;12.138;2023-01-10T04:39:38;4.87;;;2.40;;
12181;SDS011;6154;51.550;12.138;2023-01-10T04:42:08;3.40;;;2.00;;
12181;SDS011;6154;51.550;12.138;2023-01-10T04:44:36;5.75;;;2.37;;
12181;SDS011;6154;51.550;12.138;2023-01-10T04:47:04;5.03;;;2.20;;
12181;SDS011;6154;51.550;12.138;2023-01-10T04:49:32;2.28;;;1.55;;
12181;SDS011;6154;51.550;12.138;2023-01-10T04:52:00;4.87;;;2.45;;
12181;SDS011;6154;51.550;12.138;2023-01-10T04:54:29;4.18;;;2.70;;
12181;SDS011;6154;51.550;12.138;2023-01-10T04:56:56;4.18;;;2.17;;
12181;SDS011;6154;51.550;12.138;2023-01-10T04:59:26;4.00;;;1.90;;
12181;SDS011;6154;51.550;12.138;2023-01-10T05:01:55;2.35;;;1.70;;
12181;SDS011;6154;51.550;12.138;2023-01-10T05:04:23;6.62;;;1.92;;
12181;SDS011;6154;51.550;12.138;2023-01-10T05:06:52;4.47;;;2.05;;
12181;SDS011;6154;51.550;12.138;2023-01-10T05:09:20;2.42;;;1.77;;
12181;SDS011;6154;51.550;12.138;2023-01-10T05:11:48;5.70;;;2.55;;
12181;SDS011;6154;51.550;12.138;2023-01-10T05:14:16;5.90;;;2.20;;
12181;SDS011;6154;51.550;12.138;2023-01-10T05:16:46;2.78;;;2.17;;
12181;SDS011;6154;51.550;12.138;2023-01-10T05:19:14;4.87;;;2.17;;
12181;SDS011;6154;51.550;12.138;2023-01-10T05:21:42;3.55;;;2.17;;
12181;SDS011;6154;51.550;12.138;2023-01-10T05:24:10;4.32;;;2.47;;
12181;SDS011;6154;51.550;12.138;2023-01-10T05:26:38;7.57;;;2.62;;
12181;SDS011;6154;51.550;12.138;2023-01-10T05:29:08;4.10;;;2.03;;
12181;SDS011;6154;51.550;12.138;2023-01-10T05:31:36;3.08;;;2.25;;
12181;SDS011;6154;51.550;12.138;2023-01-10T05:34:06;3.87;;;2.45;;
12181;SDS011;6154;51.550;12.138;2023-01-10T05:36:37;4.22;;;2.22;;
12181;SDS011;6154;51.550;12.138;2023-01-10T05:39:06;3.05;;;1.98;;
12181;SDS011;6154;51.550;12.138;2023-01-10T05:41:34;3.33;;;2.08;;
12181;SDS011;6154;51.550;12.138;2023-01-10T05:44:02;5.70;;;2.45;;
12181;SDS011;6154;51.550;12.138;2023-01-10T05:46:30;6.37;;;2.05;;
12181;SDS011;6154;51.550;12.138;2023-01-10T05:48:58;2.37;;;1.70;;
12181;SDS011;6154;51.550;12.138;2023-01-10T05:51:28;3.10;;;2.22;;
12181;SDS011;6154;51.550;12.138;2023-01-10T05:53:56;3.50;;;2.33;;
12181;SDS011;6154;51.550;12.138;2023-01-10T05:56:24;4.60;;;2.50;;
12181;SDS011;6154;51.550;12.138;2023-01-10T05:58:53;4.28;;;1.80;;
12181;SDS011;6154;51.550;12.138;2023-01-10T06:01:33;4.22;;;1.83;;
12181;SDS011;6154;51.550;12.138;2023-01-10T06:04:01;4.05;;;2.22;;
12181;SDS011;6154;51.550;12.138;2023-01-10T06:06:31;3.30;;;2.03;;
12181;SDS011;6154;51.550;12.138;2023-01-10T06:09:00;3.62;;;2.22;;
12181;SDS011;6154;51.550;12.138;2023-01-10T06:11:28;3.85;;;2.53;;
12181;SDS011;6154;51.550;12.138;2023-01-10T06:13:56;5.45;;;2.35;;
12181;SDS011;6154;51.550;12.138;2023-01-10T06:16:25;2.75;;;2.12;;
12181;SDS011;6154;51.550;12.138;2023-01-10T06:18:53;2.37;;;1.87;;
12181;SDS011;6154;51.550;12.138;2023-01-10T06:21:21;3.35;;;1.98;;
12181;SDS011;6154;51.550;12.138;2023-01-10T06:23:51;3.12;;;2.10;;
12181;SDS011;6154;51.550;12.138;2023-01-10T06:26:19;2.95;;;1.67;;
12181;SDS011;6154;51.550;12.138;2023-01-10T06:28:47;4.50;;;2.25;;
12181;SDS011;6154;51.550;12.138;2023-01-10T06:31:15;6.93;;;2.37;;
12181;SDS011;6154;51.550;12.138;2023-01-10T06:33:43;5.12;;;2.30;;
12181;SDS011;6154;51.550;12.138;2023-01-10T06:36:11;6.00;;;3.28;;
12181;SDS011;6154;51.550;12.138;2023-01-10T06:38:39;4.28;;;2.40;;
12181;SDS011;6154;51.550;12.138;2023-01-10T06:41:09;4.93;;;2.33;;
12181;SDS011;6154;51.550;12.138;2023-01-10T06:43:40;6.12;;;2.60;;
12181;SDS011;6154;51.550;12.138;2023-01-10T06:46:11;4.62;;;2.22;;
12181;SDS011;6154;51.550;12.138;2023-01-10T06:48:39;6.07;;;2.37;;
12181;SDS011;6154;51.550;12.138;2023-01-10T06:51:09;5.97;;;2.58;;
12181;SDS011;6154;51.550;12.138;2023-01-10T06:53:38;3.37;;;2.15;;
12181;SDS011;6154;51.550;12.138;2023-01-10T06:56:06;2.95;;;2.00;;
12181;SDS011;6154;51.550;12.138;2023-01-10T06:58:37;3.50;;;2.33;;
12181;SDS011;6154;51.550;12.138;2023-01-10T07:01:06;2.67;;;1.85;;
12181;SDS011;6154;51.550;12.138;2023-01-10T07:03:39;3.90;;;2.35;;
12181;SDS011;6154;51.550;12.138;2023-01-10T07:06:08;3.58;;;2.42;;
12181;SDS011;6154;51.550;12.138;2023-01-10T07:08:36;6.50;;;2.00;;
12181;SDS011;6154;51.550;12.138;2023-01-10T07:11:06;5.03;;;1.90;;
12181;SDS011;6154;51.550;12.138;2023-01-10T07:13:37;3.97;;;2.20;;
12181;SDS011;6154;51.550;12.138;2023-01-10T07:16:07;4.72;;;1.87;;
12181;SDS011;6154;51.550;12.138;2023-01-10T07:18:38;2.15;;;1.92;;
12181;SDS011;6154;51.550;12.138;2023-01-10T07:21:07;6.65;;;2.22;;
12181;SDS011;6154;51.550;12.138;2023-01-10T07:23:37;3.67;;;2.15;;
12181;SDS011;6154;51.550;12.138;2023-01-10T07:26:07;3.20;;;2.25;;
12181;SDS011;6154;51.550;12.138;2023-01-10T07:28:36;2.62;;;1.87;;
12181;SDS011;6154;51.550;12.138;2023-01-10T07:31:06;2.08;;;1.75;;
12181;SDS011;6154;51.550;12.138;2023-01-10T07:33:34;3.58;;;1.87;;
12181;SDS011;6154;51.550;12.138;2023-01-10T07:36:02;4.03;;;2.25;;
12181;SDS011;6154;51.550;12.138;2023-01-10T07:38:31;3.05;;;1.65;;
12181;SDS011;6154;51.550;12.138;2023-01-10T07:41:00;3.70;;;1.90;;
12181;SDS011;6154;51.550;12.138;2023-01-10T07:43:28;3.03;;;1.55;;
12181;SDS011;6154;51.550;12.138;2023-01-10T07:45:58;2.00;;;1.30;;
12181;SDS011;6154;51.550;12.138;2023-01-10T07:48:28;1.73;;;1.52;;
12181;SDS011;6154;51.550;12.138;2023-01-10T07:50:56;3.75;;;1.70;;
12181;SDS011;6154;51.550;12.138;2023-01-10T07:53:26;1.37;;;1.15;;
12181;SDS011;6154;51.550;12.138;2023-01-10T07:55:57;3.25;;;1.15;;
12181;SDS011;6154;51.550;12.138;2023-01-10T07:58:26;5.45;;;1.25;;
12181;SDS011;6154;51.550;12.138;2023-01-10T08:00:56;2.15;;;1.83;;
12181;SDS011;6154;51.550;12.138;2023-01-10T08:03:26;6.35;;;0.98;;
12181;SDS011;6154;51.550;12.138;2023-01-10T08:05:58;4.20;;;1.50;;
12181;SDS011;6154;51.550;12.138;2023-01-10T08:08:28;2.37;;;1.27;;
12181;SDS011;6154;51.550;12.138;2023-01-10T08:10:57;3.65;;;1.12;;
12181;SDS011;6154;51.550;12.138;2023-01-10T08:13:28;5.07;;;1.37;;
12181;SDS011;6154;51.550;12.138;2023-01-10T08:15:56;2.35;;;0.95;;
12181;SDS011;6154;51.550;12.138;2023-01-10T08:18:26;0.80;;;0.70;;
12181;SDS011;6154;51.550;12.138;2023-01-10T08:20:55;1.87;;;0.90;;
12181;SDS011;6154;51.550;12.138;2023-01-10T08:23:23;2.30;;;1.23;;
12181;SDS011;6154;51.550;12.138;2023-01-10T08:25:51;3.35;;;0.90;;
12181;SDS011;6154;51.550;12.138;2023-01-10T08:28:20;2.25;;;0.95;;
12181;SDS011;6154;51.550;12.138;2023-01-10T08:30:48;1.02;;;0.93;;
12181;SDS011;6154;51.550;12.138;2023-01-10T08:33:21;3.40;;;1.00;;
12181;SDS011;6154;51.550;12.138;2023-01-10T08:35:51;10.60;;;1.73;;
12181;SDS011;6154;51.550;12.138;2023-01-10T08:38:19;2.25;;;0.90;;
12181;SDS011;6154;51.550;12.138;2023-01-10T08:40:48;0.80;;;0.60;;
12181;SDS011;6154;51.550;12.138;2023-01-10T08:43:16;0.57;;;0.55;;
12181;SDS011;6154;51.550;12.138;2023-01-10T08:45:44;4.47;;;0.88;;
12181;SDS011;6154;51.550;12.138;2023-01-10T08:48:13;0.93;;;0.50;;
12181;SDS011;6154;51.550;12.138;2023-01-10T08:50:41;8.77;;;1.17;;
12181;SDS011;6154;51.550;12.138;2023-01-10T08:53:10;3.10;;;1.20;;
12181;SDS011;6154;51.550;12.138;2023-01-10T08:55:39;2.53;;;0.90;;
12181;SDS011;6154;51.550;12.138;2023-01-10T08:58:07;1.92;;;1.12;;
12181;SDS011;6154;51.550;12.138;2023-01-10T09:00:36;4.40;;;1.10;;
12181;SDS011;6154;51.550;12.138;2023-01-10T09:03:05;2.33;;;1.02;;
12181;SDS011;6154;51.550;12.138;2023-01-10T09:05:33;4.15;;;1.10;;
12181;SDS011;6154;51.550;12.138;2023-01-10T09:08:01;4.68;;;1.10;;
12181;SDS011;6154;51.550;12.138;2023-01-10T09:10:32;1.80;;;1.15;;
12181;SDS011;6154;51.550;12.138;2023-01-10T09:13:00;1.15;;;0.80;;
12181;SDS011;6154;51.550;12.138;2023-01-10T09:15:31;3.60;;;1.45;;
12181;SDS011;6154;51.550;12.138;2023-01-10T09:18:01;2.05;;;1.00;;
12181;SDS011;6154;51.550;12.138;2023-01-10T09:20:32;1.65;;;1.12;;
12181;SDS011;6154;51.550;12.138;2023-01-10T09:23:03;3.72;;;1.45;;
12181;SDS011;6154;51.550;12.138;2023-01-10T09:25:33;7.68;;;1.35;;
12181;SDS011;6154;51.550;12.138;2023-01-10T09:28:02;2.60;;;1.35;;
12181;SDS011;6154;51.550;12.138;2023-01-10T09:30:32;2.83;;;1.35;;
12181;SDS011;6154;51.550;12.138;2023-01-10T09:33:00;2.92;;;2.00;;
12181;SDS011;6154;51.550;12.138;2023-01-10T09:35:29;2.87;;;1.45;;
12181;SDS011;6154;51.550;12.138;2023-01-10T09:37:58;6.03;;;1.77;;
12181;SDS011;6154;51.550;12.138;2023-01-10T09:40:36;3.37;;;1.33;;
12181;SDS011;6154;51.550;12.138;2023-01-10T09:43:14;5.35;;;1.50;;
12181;SDS011;6154;51.550;12.138;2023-01-10T09:45:50;1.87;;;1.35;;
12181;SDS011;6154;51.550;12.138;2023-01-10T09:48:30;8.48;;;2.28;;
12181;SDS011;6154;51.550;12.138;2023-01-10T09:51:10;11.82;;;2.72;;
12181;SDS011;6154;51.550;12.138;2023-01-10T09:53:49;2.10;;;1.75;;
12181;SDS011;6154;51.550;12.138;2023-01-10T09:56:37;7.57;;;1.92;;
12181;SDS011;6154;51.550;12.138;2023-01-10T09:59:09;5.93;;;2.08;;
12181;SDS011;6154;51.550;12.138;2023-01-10T10:01:40;6.30;;;1.90;;
12181;SDS011;6154;51.550;12.138;2023-01-10T10:04:14;3.85;;;1.65;;
12181;SDS011;6154;51.550;12.138;2023-01-10T10:06:49;5.22;;;1.55;;
12181;SDS011;6154;51.550;12.138;2023-01-10T10:09:23;7.45;;;1.55;;
12181;SDS011;6154;51.550;12.138;2023-01-10T10:11:57;3.35;;;1.30;;
12181;SDS011;6154;51.550;12.138;2023-01-10T10:14:39;3.00;;;1.45;;
12181;SDS011;6154;51.550;12.138;2023-01-10T10:17:23;8.50;;;1.77;;
12181;SDS011;6154;51.550;12.138;2023-01-10T10:23:05;2.85;;;1.40;;
12181;SDS011;6154;51.550;12.138;2023-01-10T10:25:49;4.43;;;1.40;;
12181;SDS011;6154;51.550;12.138;2023-01-10T10:28:32;2.65;;;1.30;;
12181;SDS011;6154;51.550;12.138;2023-01-10T10:31:23;3.58;;;1.25;;
12181;SDS011;6154;51.550;12.138;2023-01-10T10:34:03;3.85;;;1.20;;
12181;SDS011;6154;51.550;12.138;2023-01-10T10:36:40;5.60;;;1.12;;
12181;SDS011;6154;51.550;12.138;2023-01-10T10:39:13;4.70;;;1.10;;
12181;SDS011;6154;51.550;12.138;2023-01-10T10:41:45;5.15;;;1.70;;
12181;SDS011;6154;51.550;12.138;2023-01-10T10:44:25;4.72;;;1.58;;
12181;SDS011;6154;51.550;12.138;2023-01-10T10:46:59;2.55;;;1.15;;
12181;SDS011;6154;51.550;12.138;2023-01-10T10:49:35;8.30;;;1.80;;
12181;SDS011;6154;51.550;12.138;2023-01-10T10:52:08;5.60;;;1.52;;
12181;SDS011;6154;51.550;12.138;2023-01-10T10:54:43;7.93;;;2.90;;
12181;SDS011;6154;51.550;12.138;2023-01-10T10:57:13;3.67;;;1.52;;
12181;SDS011;6154;51.550;12.138;2023-01-10T10:59:45;2.28;;;1.25;;
12181;SDS011;6154;51.550;12.138;2023-01-10T11:02:18;2.47;;;1.37;;
12181;SDS011;6154;51.550;12.138;2023-01-10T11:04:49;2.53;;;1.00;;
12181;SDS011;6154;51.550;12.138;2023-01-10T11:07:20;6.15;;;1.20;;
12181;SDS011;6154;51.550;12.138;2023-01-10T11:09:49;4.28;;;1.58;;
12181;SDS011;6154;51.550;12.138;2023-01-10T11:12:23;4.68;;;1.58;;
12181;SDS011;6154;51.550;12.138;2023-01-10T11:14:57;4.47;;;1.30;;
12181;SDS011;6154;51.550;12.138;2023-01-10T11:17:28;5.47;;;1.45;;
12181;SDS011;6154;51.550;12.138;2023-01-10T11:19:59;3.20;;;1.42;;
12181;SDS011;6154;51.550;12.138;2023-01-10T11:22:29;2.37;;;1.10;;
12181;SDS011;6154;51.550;12.138;2023-01-10T11:25:00;1.75;;;0.82;;
12181;SDS011;6154;51.550;12.138;2023-01-10T11:27:30;2.08;;;1.12;;
12181;SDS011;6154;51.550;12.138;2023-01-10T11:30:05;2.45;;;1.00;;
12181;SDS011;6154;51.550;12.138;2023-01-10T11:32:36;5.50;;;1.35;;
12181;SDS011;6154;51.550;12.138;2023-01-10T11:35:08;2.20;;;0.88;;
12181;SDS011;6154;51.550;12.138;2023-01-10T11:37:57;2.75;;;0.90;;
12181;SDS011;6154;51.550;12.138;2023-01-10T11:40:26;5.72;;;1.25;;
12181;SDS011;6154;51.550;12.138;2023-01-10T11:42:56;4.10;;;1.08;;
12181;SDS011;6154;51.550;12.138;2023-01-10T11:45:27;1.12;;;1.00;;
12181;SDS011;6154;51.550;12.138;2023-01-10T11:48:01;4.75;;;0.98;;
12181;SDS011;6154;51.550;12.138;2023-01-10T11:50:35;2.20;;;1.23;;
12181;SDS011;6154;51.550;12.138;2023-01-10T11:53:06;2.72;;;1.15;;
12181;SDS011;6154;51.550;12.138;2023-01-10T11:55:57;3.40;;;0.80;;
12181;SDS011;6154;51.550;12.138;2023-01-10T11:58:28;1.48;;;0.85;;
12181;SDS011;6154;51.550;12.138;2023-01-10T12:00:59;4.30;;;0.93;;
12181;SDS011;6154;51.550;12.138;2023-01-10T12:03:31;1.77;;;1.02;;
12181;SDS011;6154;51.550;12.138;2023-01-10T12:06:03;4.10;;;1.00;;
12181;SDS011;6154;51.550;12.138;2023-01-10T12:08:35;2.33;;;1.23;;
12181;SDS011;6154;51.550;12.138;2023-01-10T12:11:04;1.83;;;0.70;;
12181;SDS011;6154;51.550;12.138;2023-01-10T12:13:44;3.47;;;0.65;;
12181;SDS011;6154;51.550;12.138;2023-01-10T12:16:16;3.15;;;1.08;;
12181;SDS011;6154;51.550;12.138;2023-01-10T12:18:46;2.45;;;0.80;;
12181;SDS011;6154;51.550;12.138;2023-01-10T12:21:15;1.92;;;0.80;;
12181;SDS011;6154;51.550;12.138;2023-01-10T12:23:48;1.73;;;0.80;;
12181;SDS011;6154;51.550;12.138;2023-01-10T12:26:18;3.00;;;1.05;;
12181;SDS011;6154;51.550;12.138;2023-01-10T12:28:48;2.83;;;1.00;;
12181;SDS011;6154;51.550;12.138;2023-01-10T12:31:20;2.65;;;1.00;;
12181;SDS011;6154;51.550;12.138;2023-01-10T12:33:50;2.62;;;1.00;;
12181;SDS011;6154;51.550;12.138;2023-01-10T12:36:27;3.00;;;1.20;;
12181;SDS011;6154;51.550;12.138;2023-01-10T12:39:02;3.35;;;0.93;;
12181;SDS011;6154;51.550;12.138;2023-01-10T12:41:45;4.28;;;1.23;;
12181;SDS011;6154;51.550;12.138;2023-01-10T12:44:35;3.10;;;1.35;;
12181;SDS011;6154;51.550;12.138;2023-01-10T12:47:12;3.12;;;1.08;;
12181;SDS011;6154;51.550;12.138;2023-01-10T12:49:47;2.80;;;1.23;;
12181;SDS011;6154;51.550;12.138;2023-01-10T12:52:23;6.37;;;1.20;;
12181;SDS011;6154;51.550;12.138;2023-01-10T12:54:58;2.37;;;1.65;;
12181;SDS011;6154;51.550;12.138;2023-01-10T12:57:30;4.03;;;1.60;;
12181;SDS011;6154;51.550;12.138;2023-01-10T13:00:00;4.43;;;1.35;;
12181;SDS011;6154;51.550;12.138;2023-01-10T13:02:36;5.25;;;1.50;;
12181;SDS011;6154;51.550;12.138;2023-01-10T13:05:06;2.75;;;1.48;;
12181;SDS011;6154;51.550;12.138;2023-01-10T13:07:44;3.90;;;1.67;;
12181;SDS011;6154;51.550;12.138;2023-01-10T13:10:14;3.42;;;1.70;;
12181;SDS011;6154;51.550;12.138;2023-01-10T13:12:49;2.47;;;1.52;;
12181;SDS011;6154;51.550;12.138;2023-01-10T13:15:26;3.28;;;1.33;;
12181;SDS011;6154;51.550;12.138;2023-01-10T13:17:59;5.45;;;1.92;;
12181;SDS011;6154;51.550;12.138;2023-01-10T13:20:38;3.05;;;1.40;;
12181;SDS011;6154;51.550;12.138;2023-01-10T13:23:12;8.57;;;1.95;;
12181;SDS011;6154;51.550;12.138;2023-01-10T13:25:57;2.47;;;1.40;;
12181;SDS011;6154;51.550;12.138;2023-01-10T13:28:29;3.00;;;1.37;;
12181;SDS011;6154;51.550;12.138;2023-01-10T13:30:59;7.85;;;1.50;;
12181;SDS011;6154;51.550;12.138;2023-01-10T13:33:32;1.95;;;1.25;;
12181;SDS011;6154;51.550;12.138;2023-01-10T13:36:07;3.53;;;1.52;;
12181;SDS011;6154;51.550;12.138;2023-01-10T13:38:43;1.00;;;0.90;;
12181;SDS011;6154;51.550;12.138;2023-01-10T13:41:15;3.28;;;1.40;;
12181;SDS011;6154;51.550;12.138;2023-01-10T13:44:04;4.07;;;1.98;;
12181;SDS011;6154;51.550;12.138;2023-01-10T13:46:38;3.65;;;1.25;;
12181;SDS011;6154;51.550;12.138;2023-01-10T13:49:24;5.28;;;1.60;;
12181;SDS011;6154;51.550;12.138;2023-01-10T13:52:26;7.12;;;1.42;;
12181;SDS011;6154;51.550;12.138;2023-01-10T13:54:57;3.40;;;1.48;;
12181;SDS011;6154;51.550;12.138;2023-01-10T13:57:47;2.20;;;1.55;;
12181;SDS011;6154;51.550;12.138;2023-01-10T14:00:20;3.85;;;1.35;;
12181;SDS011;6154;51.550;12.138;2023-01-10T14:06:31;4.85;;;1.33;;
12181;SDS011;6154;51.550;12.138;2023-01-10T14:12:03;6.12;;;1.65;;
12181;SDS011;6154;51.550;12.138;2023-01-10T14:14:36;1.77;;;1.20;;
12181;SDS011;6154;51.550;12.138;2023-01-10T14:17:09;3.97;;;1.20;;
12181;SDS011;6154;51.550;12.138;2023-01-10T14:19:41;3.35;;;1.65;;
12181;SDS011;6154;51.550;12.138;2023-01-10T14:22:24;3.60;;;1.40;;
12181;SDS011;6154;51.550;12.138;2023-01-10T14:24:57;4.07;;;1.58;;
12181;SDS011;6154;51.550;12.138;2023-01-10T14:27:27;4.82;;;1.52;;
12181;SDS011;6154;51.550;12.138;2023-01-10T14:30:03;2.95;;;1.27;;
12181;SDS011;6154;51.550;12.138;2023-01-10T14:32:34;3.42;;;1.70;;
12181;SDS011;6154;51.550;12.138;2023-01-10T14:35:05;5.75;;;1.62;;
12181;SDS011;6154;51.550;12.138;2023-01-10T14:37:38;2.75;;;1.50;;
12181;SDS011;6154;51.550;12.138;2023-01-10T14:40:14;4.03;;;1.25;;
12181;SDS011;6154;51.550;12.138;2023-01-10T14:42:46;2.33;;;1.25;;
12181;SDS011;6154;51.550;12.138;2023-01-10T14:45:18;2.87;;;1.42;;
12181;SDS011;6154;51.550;12.138;2023-01-10T14:47:54;3.08;;;1.67;;
12181;SDS011;6154;51.550;12.138;2023-01-10T14:50:23;1.67;;;1.25;;
12181;SDS011;6154;51.550;12.138;2023-01-10T14:52:55;3.20;;;1.08;;
12181;SDS011;6154;51.550;12.138;2023-01-10T14:55:24;7.50;;;1.52;;
12181;SDS011;6154;51.550;12.138;2023-01-10T14:57:54;3.85;;;1.30;;
12181;SDS011;6154;51.550;12.138;2023-01-10T15:00:24;2.37;;;1.10;;
12181;SDS011;6154;51.550;12.138;2023-01-10T15:02:54;3.90;;;1.52;;
12181;SDS011;6154;51.550;12.138;2023-01-10T15:05:25;2.50;;;1.37;;
12181;SDS011;6154;51.550;12.138;2023-01-10T15:10:42;2.20;;;0.70;;
12181;SDS011;6154;51.550;12.138;2023-01-10T15:13:13;3.85;;;1.20;;
12181;SDS011;6154;51.550;12.138;2023-01-10T15:15:44;4.15;;;0.95;;
12181;SDS011;6154;51.550;12.138;2023-01-10T15:18:21;5.93;;;1.20;;
12181;SDS011;6154;51.550;12.138;2023-01-10T15:20:56;5.00;;;1.30;;
12181;SDS011;6154;51.550;12.138;2023-01-10T15:23:31;2.42;;;1.08;;
12181;SDS011;6154;51.550;12.138;2023-01-10T15:26:02;2.97;;;1.00;;
12181;SDS011;6154;51.550;12.138;2023-01-10T15:28:32;3.15;;;1.42;;
12181;SDS011;6154;51.550;12.138;2023-01-10T15:31:02;5.03;;;1.20;;
12181;SDS011;6154;51.550;12.138;2023-01-10T15:33:31;3.75;;;1.42;;
12181;SDS011;6154;51.550;12.138;2023-01-10T15:36:02;4.70;;;1.48;;